Nearby METAR Reports

 

LFTH - Hyeres/Le Palyve, France
Distance from station: OSO 12km
Mise jour: 16/12/2018 07:30
pluie lgre, Mist, Thunderstorm
pluie lgre, Mist, Thunderstorm
 Wind from calm
Vent: calme
Temprature: 7°C
Point de rose: 6°C
Humidit: 93%
Baromtre: 1017 hPa
Rsum: pluie lgre, Mist
Clouds: Thunderstorm
Visibility: 5 km
Cloud details: Few Clouds 1097 m
nuageux 1402 m
couvert 1646 m
2018/12/16 06:30 LFTH 160630Z AUTO 00000KT 5000 -RA BR FEW036/// BKN046/// OVC054/// ///TCU 07/06 Q1017 TEMPO RA FEW013CB BKN014
LFMC - Le Luc/Le Cannet, France
Distance from station: NNE 26km
Mise jour: 16/12/2018 07:30
nuageux
nuageux
 Wind from varies
Vent: varies 4 km/h
Temprature: 6°C
Point de rose: 5°C
Humidit: 93%
Baromtre: 1016 hPa
Clouds: nuageux
Visibility: 10 km
Cloud details: Few Clouds 549 m
nuageux 1311 m
nuageux 1524 m
2018/12/16 06:30 LFMC 160630Z AUTO VRB02KT 9999 // FEW018 BKN043 BKN050 06/05 Q1016